sensor_id;sensor_type;location;lat;lon;timestamp;P1;durP1;ratioP1;P2;durP2;ratioP2
61635;SDS011;59438;45.014;39.006;2023-04-25T00:00:16;3.17;;;1.50;;
61635;SDS011;59438;45.014;39.006;2023-04-25T00:02:42;1.65;;;1.40;;
61635;SDS011;59438;45.014;39.006;2023-04-25T00:05:09;2.00;;;1.40;;
61635;SDS011;59438;45.014;39.006;2023-04-25T00:07:35;2.75;;;1.45;;
61635;SDS011;59438;45.014;39.006;2023-04-25T00:10:02;1.30;;;1.20;;
61635;SDS011;59438;45.014;39.006;2023-04-25T00:12:29;1.58;;;1.38;;
61635;SDS011;59438;45.014;39.006;2023-04-25T00:14:55;3.05;;;1.80;;
61635;SDS011;59438;45.014;39.006;2023-04-25T00:17:23;3.22;;;1.60;;
61635;SDS011;59438;45.014;39.006;2023-04-25T00:19:49;7.13;;;1.80;;
61635;SDS011;59438;45.014;39.006;2023-04-25T00:22:16;2.80;;;1.70;;
61635;SDS011;59438;45.014;39.006;2023-04-25T00:24:42;5.13;;;1.98;;
61635;SDS011;59438;45.014;39.006;2023-04-25T00:27:08;2.28;;;1.80;;
61635;SDS011;59438;45.014;39.006;2023-04-25T00:29:35;4.65;;;2.20;;
61635;SDS011;59438;45.014;39.006;2023-04-25T00:32:01;5.95;;;2.40;;
61635;SDS011;59438;45.014;39.006;2023-04-25T00:34:29;2.58;;;1.98;;
61635;SDS011;59438;45.014;39.006;2023-04-25T00:36:55;3.58;;;2.05;;
61635;SDS011;59438;45.014;39.006;2023-04-25T00:39:22;4.38;;;2.50;;
61635;SDS011;59438;45.014;39.006;2023-04-25T00:41:48;2.60;;;2.00;;
61635;SDS011;59438;45.014;39.006;2023-04-25T00:44:16;4.32;;;2.30;;
61635;SDS011;59438;45.014;39.006;2023-04-25T00:46:43;4.65;;;1.90;;
61635;SDS011;59438;45.014;39.006;2023-04-25T00:49:10;3.50;;;2.28;;
61635;SDS011;59438;45.014;39.006;2023-04-25T00:51:37;2.58;;;1.90;;
61635;SDS011;59438;45.014;39.006;2023-04-25T00:54:04;3.70;;;2.15;;
61635;SDS011;59438;45.014;39.006;2023-04-25T00:56:30;3.22;;;2.05;;
61635;SDS011;59438;45.014;39.006;2023-04-25T00:58:57;3.78;;;2.17;;
61635;SDS011;59438;45.014;39.006;2023-04-25T01:01:23;2.42;;;2.03;;
61635;SDS011;59438;45.014;39.006;2023-04-25T01:03:49;3.40;;;2.00;;
61635;SDS011;59438;45.014;39.006;2023-04-25T01:06:16;3.53;;;1.98;;
61635;SDS011;59438;45.014;39.006;2023-04-25T01:08:44;4.93;;;1.90;;
61635;SDS011;59438;45.014;39.006;2023-04-25T01:11:11;3.03;;;1.88;;
61635;SDS011;59438;45.014;39.006;2023-04-25T01:13:37;5.07;;;2.15;;
61635;SDS011;59438;45.014;39.006;2023-04-25T01:16:03;2.55;;;2.20;;
61635;SDS011;59438;45.014;39.006;2023-04-25T01:18:30;3.75;;;2.30;;
61635;SDS011;59438;45.014;39.006;2023-04-25T01:23:32;4.00;;;2.05;;
61635;SDS011;59438;45.014;39.006;2023-04-25T01:25:58;3.03;;;2.00;;
61635;SDS011;59438;45.014;39.006;2023-04-25T01:28:26;4.15;;;2.00;;
61635;SDS011;59438;45.014;39.006;2023-04-25T01:30:52;6.38;;;2.10;;
61635;SDS011;59438;45.014;39.006;2023-04-25T01:33:20;2.88;;;1.77;;
61635;SDS011;59438;45.014;39.006;2023-04-25T01:35:47;6.50;;;1.80;;
61635;SDS011;59438;45.014;39.006;2023-04-25T01:38:15;8.52;;;2.10;;
61635;SDS011;59438;45.014;39.006;2023-04-25T01:40:41;4.85;;;1.77;;
61635;SDS011;59438;45.014;39.006;2023-04-25T01:43:11;5.22;;;2.13;;
61635;SDS011;59438;45.014;39.006;2023-04-25T01:45:38;11.52;;;2.33;;
61635;SDS011;59438;45.014;39.006;2023-04-25T01:48:04;5.25;;;1.90;;
61635;SDS011;59438;45.014;39.006;2023-04-25T01:50:31;6.80;;;1.95;;
61635;SDS011;59438;45.014;39.006;2023-04-25T01:52:58;9.75;;;2.00;;
61635;SDS011;59438;45.014;39.006;2023-04-25T01:55:25;5.13;;;1.95;;
61635;SDS011;59438;45.014;39.006;2023-04-25T01:57:52;4.50;;;1.63;;
61635;SDS011;59438;45.014;39.006;2023-04-25T02:00:18;3.85;;;1.70;;
61635;SDS011;59438;45.014;39.006;2023-04-25T02:02:45;3.22;;;1.90;;
61635;SDS011;59438;45.014;39.006;2023-04-25T02:05:11;4.63;;;1.70;;
61635;SDS011;59438;45.014;39.006;2023-04-25T02:07:37;2.92;;;1.60;;
61635;SDS011;59438;45.014;39.006;2023-04-25T02:10:04;4.05;;;1.65;;
61635;SDS011;59438;45.014;39.006;2023-04-25T02:12:32;4.15;;;1.63;;
61635;SDS011;59438;45.014;39.006;2023-04-25T02:14:58;5.20;;;1.70;;
61635;SDS011;59438;45.014;39.006;2023-04-25T02:17:25;4.40;;;1.58;;
61635;SDS011;59438;45.014;39.006;2023-04-25T02:19:51;4.05;;;2.08;;
61635;SDS011;59438;45.014;39.006;2023-04-25T02:22:18;4.35;;;1.90;;
61635;SDS011;59438;45.014;39.006;2023-04-25T02:24:45;6.95;;;2.40;;
61635;SDS011;59438;45.014;39.006;2023-04-25T02:27:12;3.15;;;1.60;;
61635;SDS011;59438;45.014;39.006;2023-04-25T02:29:40;4.22;;;2.00;;
61635;SDS011;59438;45.014;39.006;2023-04-25T02:32:06;3.97;;;1.48;;
61635;SDS011;59438;45.014;39.006;2023-04-25T02:34:32;5.20;;;1.65;;
61635;SDS011;59438;45.014;39.006;2023-04-25T02:36:58;6.35;;;1.73;;
61635;SDS011;59438;45.014;39.006;2023-04-25T02:39:25;6.80;;;1.88;;
61635;SDS011;59438;45.014;39.006;2023-04-25T02:41:51;7.10;;;1.83;;
61635;SDS011;59438;45.014;39.006;2023-04-25T02:44:18;3.30;;;1.50;;
61635;SDS011;59438;45.014;39.006;2023-04-25T02:46:46;4.43;;;1.65;;
61635;SDS011;59438;45.014;39.006;2023-04-25T02:49:12;3.35;;;1.60;;
61635;SDS011;59438;45.014;39.006;2023-04-25T02:51:38;3.50;;;1.40;;
61635;SDS011;59438;45.014;39.006;2023-04-25T02:54:05;6.25;;;1.65;;
61635;SDS011;59438;45.014;39.006;2023-04-25T02:56:31;6.25;;;1.85;;
61635;SDS011;59438;45.014;39.006;2023-04-25T02:58:57;6.53;;;1.75;;
61635;SDS011;59438;45.014;39.006;2023-04-25T03:01:24;4.25;;;1.60;;
61635;SDS011;59438;45.014;39.006;2023-04-25T03:03:52;6.10;;;1.67;;
61635;SDS011;59438;45.014;39.006;2023-04-25T03:06:18;7.68;;;2.17;;
61635;SDS011;59438;45.014;39.006;2023-04-25T03:08:44;7.15;;;2.00;;
61635;SDS011;59438;45.014;39.006;2023-04-25T03:11:11;8.15;;;2.00;;
61635;SDS011;59438;45.014;39.006;2023-04-25T03:13:37;3.00;;;1.60;;
61635;SDS011;59438;45.014;39.006;2023-04-25T03:16:03;4.70;;;1.70;;
61635;SDS011;59438;45.014;39.006;2023-04-25T03:18:30;6.78;;;1.60;;
61635;SDS011;59438;45.014;39.006;2023-04-25T03:20:58;9.43;;;1.88;;
61635;SDS011;59438;45.014;39.006;2023-04-25T03:23:24;3.72;;;1.65;;
61635;SDS011;59438;45.014;39.006;2023-04-25T03:25:51;7.03;;;1.80;;
61635;SDS011;59438;45.014;39.006;2023-04-25T03:28:17;4.75;;;1.70;;
61635;SDS011;59438;45.014;39.006;2023-04-25T03:30:43;5.30;;;1.60;;
61635;SDS011;59438;45.014;39.006;2023-04-25T03:33:10;7.90;;;1.83;;
61635;SDS011;59438;45.014;39.006;2023-04-25T03:35:36;4.18;;;1.85;;
61635;SDS011;59438;45.014;39.006;2023-04-25T03:38:04;9.00;;;2.05;;
61635;SDS011;59438;45.014;39.006;2023-04-25T03:40:30;4.60;;;1.80;;
61635;SDS011;59438;45.014;39.006;2023-04-25T03:42:57;5.43;;;2.00;;
61635;SDS011;59438;45.014;39.006;2023-04-25T03:45:23;6.22;;;1.90;;
61635;SDS011;59438;45.014;39.006;2023-04-25T03:47:49;7.95;;;2.08;;
61635;SDS011;59438;45.014;39.006;2023-04-25T03:50:16;7.57;;;1.88;;
61635;SDS011;59438;45.014;39.006;2023-04-25T03:52:42;4.55;;;2.03;;
61635;SDS011;59438;45.014;39.006;2023-04-25T03:55:10;4.65;;;1.90;;
61635;SDS011;59438;45.014;39.006;2023-04-25T03:57:37;4.50;;;2.00;;
61635;SDS011;59438;45.014;39.006;2023-04-25T04:00:03;4.43;;;1.70;;
61635;SDS011;59438;45.014;39.006;2023-04-25T04:02:30;2.58;;;1.70;;
61635;SDS011;59438;45.014;39.006;2023-04-25T04:04:57;2.92;;;1.80;;
61635;SDS011;59438;45.014;39.006;2023-04-25T04:07:23;4.05;;;1.90;;
61635;SDS011;59438;45.014;39.006;2023-04-25T04:09:50;4.15;;;1.88;;
61635;SDS011;59438;45.014;39.006;2023-04-25T04:12:17;4.03;;;1.90;;
61635;SDS011;59438;45.014;39.006;2023-04-25T04:14:44;5.82;;;1.90;;
61635;SDS011;59438;45.014;39.006;2023-04-25T04:17:10;3.42;;;1.80;;
61635;SDS011;59438;45.014;39.006;2023-04-25T04:19:36;8.45;;;2.30;;
61635;SDS011;59438;45.014;39.006;2023-04-25T04:22:03;5.50;;;2.28;;
61635;SDS011;59438;45.014;39.006;2023-04-25T04:24:29;4.07;;;1.77;;
61635;SDS011;59438;45.014;39.006;2023-04-25T04:26:55;5.57;;;2.00;;
61635;SDS011;59438;45.014;39.006;2023-04-25T04:29:23;10.90;;;2.15;;
61635;SDS011;59438;45.014;39.006;2023-04-25T04:31:50;5.47;;;2.00;;
61635;SDS011;59438;45.014;39.006;2023-04-25T04:34:16;9.70;;;2.15;;
61635;SDS011;59438;45.014;39.006;2023-04-25T04:36:43;6.28;;;2.13;;
61635;SDS011;59438;45.014;39.006;2023-04-25T04:39:09;5.80;;;1.98;;
61635;SDS011;59438;45.014;39.006;2023-04-25T04:41:36;7.78;;;2.08;;
61635;SDS011;59438;45.014;39.006;2023-04-25T04:44:02;3.35;;;1.70;;
61635;SDS011;59438;45.014;39.006;2023-04-25T04:46:30;5.72;;;1.80;;
61635;SDS011;59438;45.014;39.006;2023-04-25T04:48:57;3.05;;;1.85;;
61635;SDS011;59438;45.014;39.006;2023-04-25T04:51:23;3.85;;;2.00;;
61635;SDS011;59438;45.014;39.006;2023-04-25T04:53:49;3.40;;;1.90;;
61635;SDS011;59438;45.014;39.006;2023-04-25T04:56:16;2.63;;;1.80;;
61635;SDS011;59438;45.014;39.006;2023-04-25T04:58:42;4.18;;;1.90;;
61635;SDS011;59438;45.014;39.006;2023-04-25T05:01:08;2.60;;;1.98;;
61635;SDS011;59438;45.014;39.006;2023-04-25T05:03:36;3.17;;;2.00;;
61635;SDS011;59438;45.014;39.006;2023-04-25T05:06:03;5.18;;;1.92;;
61635;SDS011;59438;45.014;39.006;2023-04-25T05:08:29;6.95;;;2.22;;
61635;SDS011;59438;45.014;39.006;2023-04-25T05:10:55;6.15;;;2.50;;
61635;SDS011;59438;45.014;39.006;2023-04-25T05:13:22;8.10;;;2.67;;
61635;SDS011;59438;45.014;39.006;2023-04-25T05:15:48;4.28;;;2.30;;
61635;SDS011;59438;45.014;39.006;2023-04-25T05:18:14;6.38;;;2.33;;
61635;SDS011;59438;45.014;39.006;2023-04-25T05:20:42;4.95;;;2.00;;
61635;SDS011;59438;45.014;39.006;2023-04-25T05:23:09;4.93;;;2.17;;
61635;SDS011;59438;45.014;39.006;2023-04-25T05:25:35;2.47;;;1.85;;
61635;SDS011;59438;45.014;39.006;2023-04-25T05:28:01;2.95;;;1.85;;
61635;SDS011;59438;45.014;39.006;2023-04-25T05:30:28;3.38;;;1.50;;
61635;SDS011;59438;45.014;39.006;2023-04-25T05:32:54;5.05;;;2.28;;
61635;SDS011;59438;45.014;39.006;2023-04-25T05:35:20;4.47;;;1.90;;
61635;SDS011;59438;45.014;39.006;2023-04-25T05:37:48;4.82;;;1.70;;
61635;SDS011;59438;45.014;39.006;2023-04-25T05:40:14;2.58;;;1.60;;
61635;SDS011;59438;45.014;39.006;2023-04-25T05:42:41;2.70;;;1.70;;
61635;SDS011;59438;45.014;39.006;2023-04-25T05:45:07;6.35;;;1.80;;
61635;SDS011;59438;45.014;39.006;2023-04-25T05:47:34;5.15;;;2.00;;
61635;SDS011;59438;45.014;39.006;2023-04-25T05:50:00;4.32;;;1.80;;
61635;SDS011;59438;45.014;39.006;2023-04-25T05:52:27;2.10;;;1.45;;
61635;SDS011;59438;45.014;39.006;2023-04-25T05:54:54;6.55;;;1.55;;
61635;SDS011;59438;45.014;39.006;2023-04-25T05:57:22;3.33;;;1.80;;
61635;SDS011;59438;45.014;39.006;2023-04-25T05:59:48;7.80;;;1.70;;
61635;SDS011;59438;45.014;39.006;2023-04-25T06:02:15;1.75;;;1.45;;
61635;SDS011;59438;45.014;39.006;2023-04-25T06:04:41;5.22;;;1.70;;
61635;SDS011;59438;45.014;39.006;2023-04-25T06:07:08;4.47;;;1.42;;
61635;SDS011;59438;45.014;39.006;2023-04-25T06:09:34;4.25;;;1.52;;
61635;SDS011;59438;45.014;39.006;2023-04-25T06:12:02;14.68;;;1.60;;
61635;SDS011;59438;45.014;39.006;2023-04-25T06:14:28;4.03;;;1.85;;
61635;SDS011;59438;45.014;39.006;2023-04-25T06:16:55;5.05;;;1.52;;
61635;SDS011;59438;45.014;39.006;2023-04-25T06:19:21;8.43;;;1.73;;
61635;SDS011;59438;45.014;39.006;2023-04-25T06:21:47;18.38;;;2.10;;
61635;SDS011;59438;45.014;39.006;2023-04-25T06:24:14;7.68;;;1.70;;
61635;SDS011;59438;45.014;39.006;2023-04-25T06:26:40;4.78;;;1.50;;
61635;SDS011;59438;45.014;39.006;2023-04-25T06:29:08;3.35;;;1.60;;
61635;SDS011;59438;45.014;39.006;2023-04-25T06:31:34;2.42;;;1.50;;
61635;SDS011;59438;45.014;39.006;2023-04-25T06:34:01;7.47;;;2.17;;
61635;SDS011;59438;45.014;39.006;2023-04-25T06:36:27;4.07;;;1.70;;
61635;SDS011;59438;45.014;39.006;2023-04-25T06:38:53;6.95;;;2.00;;
61635;SDS011;59438;45.014;39.006;2023-04-25T06:41:20;4.80;;;1.90;;
61635;SDS011;59438;45.014;39.006;2023-04-25T06:43:46;7.18;;;1.83;;
61635;SDS011;59438;45.014;39.006;2023-04-25T06:46:14;2.40;;;1.77;;
61635;SDS011;59438;45.014;39.006;2023-04-25T06:48:40;5.22;;;1.63;;
61635;SDS011;59438;45.014;39.006;2023-04-25T06:51:06;2.33;;;1.80;;
61635;SDS011;59438;45.014;39.006;2023-04-25T06:53:33;4.53;;;1.60;;
61635;SDS011;59438;45.014;39.006;2023-04-25T06:55:59;4.00;;;2.08;;
61635;SDS011;59438;45.014;39.006;2023-04-25T06:58:25;5.97;;;2.00;;
61635;SDS011;59438;45.014;39.006;2023-04-25T07:00:52;12.57;;;2.60;;
61635;SDS011;59438;45.014;39.006;2023-04-25T07:03:20;7.50;;;2.08;;
61635;SDS011;59438;45.014;39.006;2023-04-25T07:05:46;6.35;;;2.10;;
61635;SDS011;59438;45.014;39.006;2023-04-25T07:08:12;4.35;;;1.80;;
61635;SDS011;59438;45.014;39.006;2023-04-25T07:10:39;5.97;;;1.88;;
61635;SDS011;59438;45.014;39.006;2023-04-25T07:13:05;7.13;;;2.10;;
61635;SDS011;59438;45.014;39.006;2023-04-25T07:15:31;7.47;;;1.92;;
61635;SDS011;59438;45.014;39.006;2023-04-25T07:17:58;5.63;;;1.90;;
61635;SDS011;59438;45.014;39.006;2023-04-25T07:20:26;8.82;;;2.20;;
61635;SDS011;59438;45.014;39.006;2023-04-25T07:22:53;4.60;;;1.70;;
61635;SDS011;59438;45.014;39.006;2023-04-25T07:25:19;5.03;;;1.90;;
61635;SDS011;59438;45.014;39.006;2023-04-25T07:27:45;6.20;;;2.28;;
61635;SDS011;59438;45.014;39.006;2023-04-25T07:30:12;4.85;;;2.08;;
61635;SDS011;59438;45.014;39.006;2023-04-25T07:32:39;5.90;;;1.88;;
61635;SDS011;59438;45.014;39.006;2023-04-25T07:35:05;3.15;;;2.10;;
61635;SDS011;59438;45.014;39.006;2023-04-25T07:37:34;8.90;;;2.10;;
61635;SDS011;59438;45.014;39.006;2023-04-25T07:40:00;7.82;;;2.03;;
61635;SDS011;59438;45.014;39.006;2023-04-25T07:42:27;5.95;;;1.95;;
61635;SDS011;59438;45.014;39.006;2023-04-25T07:44:53;5.82;;;1.98;;
61635;SDS011;59438;45.014;39.006;2023-04-25T07:47:19;3.97;;;2.00;;
61635;SDS011;59438;45.014;39.006;2023-04-25T07:49:46;5.63;;;1.90;;
61635;SDS011;59438;45.014;39.006;2023-04-25T07:52:12;6.47;;;1.95;;
61635;SDS011;59438;45.014;39.006;2023-04-25T07:54:40;3.25;;;1.70;;
61635;SDS011;59438;45.014;39.006;2023-04-25T07:57:06;4.85;;;2.13;;
61635;SDS011;59438;45.014;39.006;2023-04-25T07:59:33;2.20;;;1.63;;
61635;SDS011;59438;45.014;39.006;2023-04-25T08:01:59;4.38;;;2.10;;
61635;SDS011;59438;45.014;39.006;2023-04-25T08:04:26;8.48;;;1.98;;
61635;SDS011;59438;45.014;39.006;2023-04-25T08:06:52;9.18;;;2.10;;
61635;SDS011;59438;45.014;39.006;2023-04-25T08:09:19;15.00;;;2.22;;
61635;SDS011;59438;45.014;39.006;2023-04-25T08:11:47;8.32;;;2.47;;
61635;SDS011;59438;45.014;39.006;2023-04-25T08:14:14;3.72;;;1.80;;
61635;SDS011;59438;45.014;39.006;2023-04-25T08:16:40;6.68;;;2.00;;
61635;SDS011;59438;45.014;39.006;2023-04-25T08:19:06;4.55;;;2.03;;
61635;SDS011;59438;45.014;39.006;2023-04-25T08:21:33;7.72;;;2.20;;
61635;SDS011;59438;45.014;39.006;2023-04-25T08:23:59;8.20;;;2.00;;
61635;SDS011;59438;45.014;39.006;2023-04-25T08:26:25;6.22;;;1.90;;
61635;SDS011;59438;45.014;39.006;2023-04-25T08:28:53;8.55;;;1.75;;
61635;SDS011;59438;45.014;39.006;2023-04-25T08:31:19;12.13;;;1.80;;
61635;SDS011;59438;45.014;39.006;2023-04-25T08:33:46;5.38;;;1.98;;
61635;SDS011;59438;45.014;39.006;2023-04-25T08:36:12;6.30;;;1.88;;
61635;SDS011;59438;45.014;39.006;2023-04-25T08:38:38;4.13;;;1.70;;
61635;SDS011;59438;45.014;39.006;2023-04-25T08:41:05;6.60;;;1.90;;
61635;SDS011;59438;45.014;39.006;2023-04-25T08:43:32;8.48;;;1.85;;
61635;SDS011;59438;45.014;39.006;2023-04-25T08:46:01;5.03;;;1.80;;
61635;SDS011;59438;45.014;39.006;2023-04-25T08:48:28;6.13;;;1.70;;
61635;SDS011;59438;45.014;39.006;2023-04-25T08:50:57;7.20;;;1.83;;
61635;SDS011;59438;45.014;39.006;2023-04-25T08:53:26;2.97;;;1.50;;
61635;SDS011;59438;45.014;39.006;2023-04-25T08:55:53;43.88;;;2.72;;
61635;SDS011;59438;45.014;39.006;2023-04-25T08:58:21;6.13;;;1.70;;
61635;SDS011;59438;45.014;39.006;2023-04-25T09:00:47;5.88;;;1.88;;
61635;SDS011;59438;45.014;39.006;2023-04-25T09:03:16;6.50;;;2.10;;
61635;SDS011;59438;45.014;39.006;2023-04-25T09:05:42;5.22;;;2.10;;
61635;SDS011;59438;45.014;39.006;2023-04-25T09:08:09;8.23;;;1.80;;
61635;SDS011;59438;45.014;39.006;2023-04-25T09:10:50;6.63;;;1.50;;
61635;SDS011;59438;45.014;39.006;2023-04-25T09:13:23;3.20;;;1.55;;
61635;SDS011;59438;45.014;39.006;2023-04-25T09:15:51;6.30;;;1.73;;
61635;SDS011;59438;45.014;39.006;2023-04-25T09:18:23;3.22;;;1.50;;
61635;SDS011;59438;45.014;39.006;2023-04-25T09:20:51;7.15;;;1.73;;
61635;SDS011;59438;45.014;39.006;2023-04-25T09:23:18;5.47;;;1.70;;
61635;SDS011;59438;45.014;39.006;2023-04-25T09:25:46;4.75;;;2.00;;
61635;SDS011;59438;45.014;39.006;2023-04-25T09:28:13;7.07;;;1.80;;
61635;SDS011;59438;45.014;39.006;2023-04-25T09:30:39;4.30;;;1.73;;
61635;SDS011;59438;45.014;39.006;2023-04-25T09:33:06;4.82;;;1.70;;
61635;SDS011;59438;45.014;39.006;2023-04-25T09:35:38;4.82;;;1.70;;
61635;SDS011;59438;45.014;39.006;2023-04-25T09:38:08;6.88;;;2.00;;
61635;SDS011;59438;45.014;39.006;2023-04-25T09:40:38;5.15;;;2.00;;
61635;SDS011;59438;45.014;39.006;2023-04-25T09:43:08;5.43;;;1.83;;
61635;SDS011;59438;45.014;39.006;2023-04-25T09:45:40;6.28;;;1.63;;
61635;SDS011;59438;45.014;39.006;2023-04-25T09:48:07;4.20;;;1.40;;
61635;SDS011;59438;45.014;39.006;2023-04-25T09:50:33;6.88;;;1.70;;
61635;SDS011;59438;45.014;39.006;2023-04-25T09:53:04;3.60;;;1.30;;
61635;SDS011;59438;45.014;39.006;2023-04-25T09:55:31;5.70;;;1.52;;
61635;SDS011;59438;45.014;39.006;2023-04-25T09:57:59;5.63;;;1.40;;
61635;SDS011;59438;45.014;39.006;2023-04-25T10:00:30;3.40;;;1.60;;
61635;SDS011;59438;45.014;39.006;2023-04-25T10:02:57;3.33;;;1.40;;
61635;SDS011;59438;45.014;39.006;2023-04-25T10:05:26;5.15;;;1.60;;
61635;SDS011;59438;45.014;39.006;2023-04-25T10:07:55;6.32;;;1.70;;
61635;SDS011;59438;45.014;39.006;2023-04-25T10:10:24;5.82;;;1.35;;
61635;SDS011;59438;45.014;39.006;2023-04-25T10:12:51;4.82;;;1.50;;
61635;SDS011;59438;45.014;39.006;2023-04-25T10:15:17;3.83;;;1.50;;
61635;SDS011;59438;45.014;39.006;2023-04-25T10:17:45;7.38;;;1.50;;
61635;SDS011;59438;45.014;39.006;2023-04-25T10:20:11;5.57;;;1.60;;
61635;SDS011;59438;45.014;39.006;2023-04-25T10:22:39;3.08;;;1.60;;
61635;SDS011;59438;45.014;39.006;2023-04-25T10:25:09;8.15;;;1.75;;
61635;SDS011;59438;45.014;39.006;2023-04-25T10:27:38;9.63;;;1.80;;
61635;SDS011;59438;45.014;39.006;2023-04-25T10:30:06;5.75;;;1.88;;
61635;SDS011;59438;45.014;39.006;2023-04-25T10:32:34;5.53;;;1.58;;
61635;SDS011;59438;45.014;39.006;2023-04-25T10:38:00;3.58;;;1.70;;
61635;SDS011;59438;45.014;39.006;2023-04-25T10:41:02;3.67;;;1.52;;
61635;SDS011;59438;45.014;39.006;2023-04-25T10:43:40;6.20;;;2.20;;
61635;SDS011;59438;45.014;39.006;2023-04-25T10:46:18;7.72;;;2.00;;
61635;SDS011;59438;45.014;39.006;2023-04-25T10:48:46;4.53;;;1.92;;
61635;SDS011;59438;45.014;39.006;2023-04-25T10:51:16;4.28;;;2.30;;
61635;SDS011;59438;45.014;39.006;2023-04-25T10:53:43;4.25;;;1.55;;
61635;SDS011;59438;45.014;39.006;2023-04-25T10:56:11;5.40;;;2.75;;
61635;SDS011;59438;45.014;39.006;2023-04-25T10:58:42;8.27;;;2.10;;
61635;SDS011;59438;45.014;39.006;2023-04-25T11:01:09;4.03;;;1.80;;
61635;SDS011;59438;45.014;39.006;2023-04-25T11:03:40;6.20;;;2.08;;
61635;SDS011;59438;45.014;39.006;2023-04-25T11:06:11;6.43;;;2.03;;
61635;SDS011;59438;45.014;39.006;2023-04-25T11:08:47;4.85;;;1.85;;
61635;SDS011;59438;45.014;39.006;2023-04-25T11:11:14;4.85;;;1.30;;
61635;SDS011;59438;45.014;39.006;2023-04-25T11:13:42;11.75;;;2.00;;
61635;SDS011;59438;45.014;39.006;2023-04-25T11:16:09;3.65;;;1.42;;
61635;SDS011;59438;45.014;39.006;2023-04-25T11:18:35;6.03;;;2.55;;
61635;SDS011;59438;45.014;39.006;2023-04-25T11:21:02;12.20;;;5.32;;
61635;SDS011;59438;45.014;39.006;2023-04-25T11:23:28;7.63;;;3.30;;
61635;SDS011;59438;45.014;39.006;2023-04-25T11:25:56;9.85;;;4.85;;
61635;SDS011;59438;45.014;39.006;2023-04-25T11:28:22;11.32;;;4.65;;
61635;SDS011;59438;45.014;39.006;2023-04-25T11:30:51;11.35;;;6.20;;
61635;SDS011;59438;45.014;39.006;2023-04-25T11:33:17;4.15;;;1.90;;
61635;SDS011;59438;45.014;39.006;2023-04-25T11:35:48;5.55;;;1.63;;
61635;SDS011;59438;45.014;39.006;2023-04-25T11:38:15;3.17;;;1.45;;
61635;SDS011;59438;45.014;39.006;2023-04-25T11:40:42;5.40;;;1.83;;
61635;SDS011;59438;45.014;39.006;2023-04-25T11:43:18;7.00;;;1.48;;
61635;SDS011;59438;45.014;39.006;2023-04-25T11:45:47;4.50;;;1.55;;
61635;SDS011;59438;45.014;39.006;2023-04-25T11:48:15;6.10;;;1.73;;
61635;SDS011;59438;45.014;39.006;2023-04-25T11:53:44;8.95;;;1.77;;
61635;SDS011;59438;45.014;39.006;2023-04-25T11:56:10;4.43;;;1.60;;
61635;SDS011;59438;45.014;39.006;2023-04-25T12:01:25;4.25;;;1.52;;
61635;SDS011;59438;45.014;39.006;2023-04-25T12:03:54;5.25;;;1.50;;
61635;SDS011;59438;45.014;39.006;2023-04-25T12:06:21;3.47;;;1.38;;
61635;SDS011;59438;45.014;39.006;2023-04-25T12:09:01;4.13;;;1.33;;
61635;SDS011;59438;45.014;39.006;2023-04-25T12:11:29;5.72;;;1.30;;
61635;SDS011;59438;45.014;39.006;2023-04-25T12:13:56;4.70;;;1.58;;
61635;SDS011;59438;45.014;39.006;2023-04-25T12:16:28;5.55;;;1.70;;
61635;SDS011;59438;45.014;39.006;2023-04-25T12:18:56;8.50;;;1.70;;
61635;SDS011;59438;45.014;39.006;2023-04-25T12:21:23;4.03;;;1.50;;
61635;SDS011;59438;45.014;39.006;2023-04-25T12:23:49;5.15;;;1.50;;
61635;SDS011;59438;45.014;39.006;2023-04-25T12:26:16;9.13;;;1.35;;
61635;SDS011;59438;45.014;39.006;2023-04-25T12:28:45;6.07;;;1.40;;
61635;SDS011;59438;45.014;39.006;2023-04-25T12:31:11;3.88;;;1.45;;
61635;SDS011;59438;45.014;39.006;2023-04-25T12:33:37;3.92;;;1.40;;
61635;SDS011;59438;45.014;39.006;2023-04-25T12:36:06;9.18;;;1.60;;
61635;SDS011;59438;45.014;39.006;2023-04-25T12:38:35;7.85;;;1.55;;
61635;SDS011;59438;45.014;39.006;2023-04-25T12:41:02;6.87;;;1.80;;
61635;SDS011;59438;45.014;39.006;2023-04-25T12:43:28;22.38;;;2.00;;
61635;SDS011;59438;45.014;39.006;2023-04-25T12:45:55;7.53;;;1.80;;
61635;SDS011;59438;45.014;39.006;2023-04-25T12:48:22;5.85;;;1.95;;
61635;SDS011;59438;45.014;39.006;2023-04-25T12:50:49;5.13;;;1.60;;
61635;SDS011;59438;45.014;39.006;2023-04-25T12:53:18;4.43;;;1.63;;
61635;SDS011;59438;45.014;39.006;2023-04-25T12:55:45;3.00;;;1.42;;
61635;SDS011;59438;45.014;39.006;2023-04-25T12:58:12;4.70;;;1.70;;
61635;SDS011;59438;45.014;39.006;2023-04-25T13:00:38;3.47;;;1.73;;
61635;SDS011;59438;45.014;39.006;2023-04-25T13:03:04;3.53;;;1.50;;
61635;SDS011;59438;45.014;39.006;2023-04-25T13:05:31;3.58;;;1.40;;
61635;SDS011;59438;45.014;39.006;2023-04-25T13:07:57;3.67;;;1.52;;
61635;SDS011;59438;45.014;39.006;2023-04-25T13:10:25;3.28;;;1.50;;
61635;SDS011;59438;45.014;39.006;2023-04-25T13:12:52;8.25;;;1.83;;
61635;SDS011;59438;45.014;39.006;2023-04-25T13:15:18;3.05;;;1.70;;
61635;SDS011;59438;45.014;39.006;2023-04-25T13:17:45;7.53;;;1.65;;
61635;SDS011;59438;45.014;39.006;2023-04-25T13:20:11;4.20;;;1.50;;
61635;SDS011;59438;45.014;39.006;2023-04-25T13:22:38;2.65;;;1.50;;
61635;SDS011;59438;45.014;39.006;2023-04-25T13:25:06;6.28;;;1.60;;
61635;SDS011;59438;45.014;39.006;2023-04-25T13:27:35;3.65;;;1.48;;
61635;SDS011;59438;45.014;39.006;2023-04-25T13:30:03;4.32;;;1.83;;
61635;SDS011;59438;45.014;39.006;2023-04-25T13:32:30;5.90;;;1.60;;
61635;SDS011;59438;45.014;39.006;2023-04-25T13:34:57;3.85;;;1.48;;
61635;SDS011;59438;45.014;39.006;2023-04-25T13:37:23;3.42;;;1.50;;
61635;SDS011;59438;45.014;39.006;2023-04-25T13:39:50;10.63;;;1.70;;
61635;SDS011;59438;45.014;39.006;2023-04-25T13:42:16;2.30;;;1.30;;
61635;SDS011;59438;45.014;39.006;2023-04-25T13:44:44;3.70;;;1.58;;
61635;SDS011;59438;45.014;39.006;2023-04-25T13:47:10;5.53;;;1.60;;
61635;SDS011;59438;45.014;39.006;2023-04-25T13:49:37;6.05;;;1.33;;
61635;SDS011;59438;45.014;39.006;2023-04-25T13:52:03;6.43;;;1.45;;
61635;SDS011;59438;45.014;39.006;2023-04-25T13:54:29;2.78;;;1.40;;
61635;SDS011;59438;45.014;39.006;2023-04-25T13:56:56;4.30;;;1.77;;
61635;SDS011;59438;45.014;39.006;2023-04-25T13:59:22;6.18;;;1.50;;
61635;SDS011;59438;45.014;39.006;2023-04-25T14:01:50;4.53;;;1.48;;
61635;SDS011;59438;45.014;39.006;2023-04-25T14:04:16;7.68;;;1.83;;
61635;SDS011;59438;45.014;39.006;2023-04-25T14:06:43;3.53;;;1.35;;
61635;SDS011;59438;45.014;39.006;2023-04-25T14:09:09;3.83;;;1.60;;
61635;SDS011;59438;45.014;39.006;2023-04-25T14:11:35;2.90;;;1.60;;
61635;SDS011;59438;45.014;39.006;2023-04-25T14:14:02;3.72;;;1.52;;
61635;SDS011;59438;45.014;39.006;2023-04-25T14:16:29;3.13;;;1.50;;
61635;SDS011;59438;45.014;39.006;2023-04-25T14:18:57;6.03;;;1.60;;
61635;SDS011;59438;45.014;39.006;2023-04-25T14:21:23;4.15;;;1.42;;
61635;SDS011;59438;45.014;39.006;2023-04-25T14:23:50;4.00;;;1.50;;
61635;SDS011;59438;45.014;39.006;2023-04-25T14:26:16;9.82;;;1.55;;
61635;SDS011;59438;45.014;39.006;2023-04-25T14:28:42;2.45;;;1.40;;
61635;SDS011;59438;45.014;39.006;2023-04-25T14:31:09;5.22;;;1.50;;
61635;SDS011;59438;45.014;39.006;2023-04-25T14:33:35;3.40;;;1.50;;
61635;SDS011;59438;45.014;39.006;2023-04-25T14:36:03;5.38;;;1.48;;
61635;SDS011;59438;45.014;39.006;2023-04-25T14:38:30;3.90;;;1.65;;
61635;SDS011;59438;45.014;39.006;2023-04-25T14:40:56;2.13;;;1.38;;
61635;SDS011;59438;45.014;39.006;2023-04-25T14:43:23;3.50;;;1.60;;